Time;durP1;ratioP1;P1;durP2;ratioP2;P2;SDS_P1;SDS_P2;PMS_P1;PMS_P2;Temp;Humidity;BMP_temperature;BMP_pressure;BME280_temperature;BME280_humidity;BME280_pressure;Samples;Min_cycle;Max_cycle;Signal;HPM_P1;HPM_P2
2023/10/28 00:01:11;;;;;;;0.40;0.20;;;10.60;99.90;;;;;;5137174;27;20437;-58
2023/10/28 00:03:38;;;;;;;0.50;0.10;;;10.70;99.90;;;;;;5138258;27;20872;-59
2023/10/28 00:06:07;;;;;;;0.40;0.10;;;10.70;99.90;;;;;;5138643;27;20418;-60
2023/10/28 00:08:34;;;;;;;0.30;0.10;;;10.70;99.90;;;;;;5138581;27;20521;-60
2023/10/28 00:11:04;;;;;;;0.30;0.10;;;10.70;99.90;;;;;;5138722;27;20410;-61
2023/10/28 00:13:31;;;;;;;0.30;0.10;;;10.70;99.90;;;;;;5139117;27;20471;-61
2023/10/28 00:15:58;;;;;;;0.40;0.20;;;10.80;99.90;;;;;;5138270;27;20422;-59
2023/10/28 00:18:25;;;;;;;0.50;0.20;;;10.70;99.90;;;;;;5138640;27;20414;-60
2023/10/28 00:20:52;;;;;;;0.40;0.10;;;10.70;99.90;;;;;;5138053;27;20833;-60
2023/10/28 00:23:22;;;;;;;0.40;0.10;;;10.70;99.90;;;;;;5138433;27;20421;-59
2023/10/28 00:25:49;;;;;;;0.30;0.10;;;10.80;99.90;;;;;;5137866;27;20441;-61
2023/10/28 00:28:16;;;;;;;0.40;0.20;;;10.80;99.90;;;;;;5138145;27;20870;-60
2023/10/28 00:30:43;;;;;;;0.30;0.10;;;10.80;99.90;;;;;;5137828;27;20419;-60
2023/10/28 00:33:10;;;;;;;0.32;0.20;;;10.80;99.90;;;;;;5138807;27;20414;-60
2023/10/28 00:35:38;;;;;;;0.40;0.20;;;10.80;99.90;;;;;;5138201;27;20441;-60
2023/10/28 00:38:05;;;;;;;0.30;0.10;;;10.80;99.90;;;;;;5136966;27;20411;-60
2023/10/28 00:40:33;;;;;;;0.30;0.10;;;10.70;99.90;;;;;;5138158;27;20840;-60
2023/10/28 00:43:01;;;;;;;0.50;0.10;;;10.70;99.90;;;;;;5139071;27;20418;-60
2023/10/28 00:45:28;;;;;;;0.30;0.10;;;10.70;99.90;;;;;;5138357;27;20705;-60
2023/10/28 00:47:57;;;;;;;0.40;0.20;;;10.60;99.90;;;;;;5137563;27;20434;-60
2023/10/28 00:50:24;;;;;;;0.30;0.10;;;10.70;99.90;;;;;;5136915;27;20788;-61
2023/10/28 00:52:54;;;;;;;0.50;0.20;;;10.60;99.90;;;;;;5137240;27;20575;-61
2023/10/28 00:55:22;;;;;;;0.30;0.10;;;10.60;99.90;;;;;;5137220;27;20483;-61
2023/10/28 00:57:52;;;;;;;0.50;0.20;;;10.60;99.90;;;;;;5136314;27;20426;-60
2023/10/28 01:00:20;;;;;;;0.40;0.10;;;10.60;99.90;;;;;;5137313;27;20433;-60
2023/10/28 01:02:47;;;;;;;0.80;0.20;;;10.60;99.90;;;;;;5137571;27;20868;-60
2023/10/28 01:05:16;;;;;;;0.30;0.10;;;10.70;99.90;;;;;;5137838;27;20421;-60
2023/10/28 01:07:46;;;;;;;0.40;0.20;;;10.60;99.90;;;;;;5137877;27;20887;-60
2023/10/28 01:10:14;;;;;;;0.50;0.10;;;10.60;99.90;;;;;;5137569;27;20722;-60
2023/10/28 01:12:41;;;;;;;0.30;0.10;;;10.60;99.90;;;;;;5137572;27;20837;-60
2023/10/28 01:15:10;;;;;;;0.30;0.10;;;10.60;99.90;;;;;;5136278;27;20418;-60
2023/10/28 01:17:37;;;;;;;0.40;0.20;;;10.60;99.90;;;;;;5137060;27;20425;-60
2023/10/28 01:20:05;;;;;;;0.55;0.20;;;10.60;99.90;;;;;;5136147;27;20412;-60
2023/10/28 01:22:33;;;;;;;0.33;0.10;;;10.60;99.90;;;;;;5135729;27;20868;-60
2023/10/28 01:25:00;;;;;;;0.30;0.10;;;10.60;99.90;;;;;;5137458;27;20428;-60
2023/10/28 01:27:27;;;;;;;1.00;0.20;;;10.60;99.90;;;;;;5137852;27;20415;-60
2023/10/28 01:29:55;;;;;;;0.30;0.10;;;10.70;99.90;;;;;;5137585;27;20431;-61
2023/10/28 01:32:22;;;;;;;0.40;0.20;;;10.70;99.90;;;;;;5137431;27;20419;-59
2023/10/28 01:34:51;;;;;;;0.90;0.20;;;10.60;99.90;;;;;;5137550;27;20407;-59
2023/10/28 01:37:18;;;;;;;0.40;0.10;;;10.60;99.90;;;;;;5137921;27;20425;-59
2023/10/28 01:39:48;;;;;;;0.60;0.10;;;10.60;99.90;;;;;;5137634;27;20410;-60
2023/10/28 01:42:15;;;;;;;0.55;0.20;;;10.60;99.90;;;;;;5137693;27;20425;-60
2023/10/28 01:44:42;;;;;;;0.30;0.10;;;10.60;99.90;;;;;;5137115;27;20837;-59
2023/10/28 01:47:09;;;;;;;0.50;0.10;;;10.60;99.90;;;;;;5137670;27;20418;-60
2023/10/28 01:49:36;;;;;;;1.25;0.20;;;10.60;99.90;;;;;;5137165;27;20838;-59
2023/10/28 01:52:07;;;;;;;1.60;0.20;;;10.60;99.90;;;;;;5137320;27;20418;-59
2023/10/28 01:54:35;;;;;;;0.33;0.10;;;10.60;99.90;;;;;;5137331;27;20422;-60
2023/10/28 01:57:05;;;;;;;0.60;0.20;;;10.60;99.90;;;;;;5136921;27;20791;-60
2023/10/28 01:59:32;;;;;;;0.40;0.10;;;10.60;99.90;;;;;;5137196;27;20829;-61
2023/10/28 02:02:01;;;;;;;0.30;0.20;;;10.50;99.90;;;;;;5136637;27;20422;-60
2023/10/28 02:04:29;;;;;;;0.40;0.10;;;10.60;99.90;;;;;;5136995;27;20513;-60
2023/10/28 02:06:56;;;;;;;0.80;0.20;;;10.60;99.90;;;;;;5136358;27;20414;-60
2023/10/28 02:09:23;;;;;;;0.40;0.20;;;10.50;99.90;;;;;;5136176;27;20466;-60
2023/10/28 02:11:52;;;;;;;0.40;0.10;;;10.50;99.90;;;;;;5136498;27;20425;-60
2023/10/28 02:14:22;;;;;;;1.50;0.20;;;10.60;99.90;;;;;;5136689;27;20426;-61
2023/10/28 02:16:50;;;;;;;0.60;0.20;;;10.50;99.90;;;;;;5136946;27;20411;-60
2023/10/28 02:19:20;;;;;;;0.50;0.20;;;10.50;99.90;;;;;;5136708;27;20414;-60
2023/10/28 02:21:48;;;;;;;0.50;0.10;;;10.50;99.90;;;;;;5136614;27;20786;-60
2023/10/28 02:24:16;;;;;;;0.40;0.20;;;10.50;99.90;;;;;;5136440;27;20418;-59
2023/10/28 02:26:44;;;;;;;0.47;0.10;;;10.50;99.90;;;;;;5136437;27;20505;-60
2023/10/28 02:29:11;;;;;;;0.57;0.20;;;10.40;99.90;;;;;;5135849;27;20430;-59
2023/10/28 02:31:39;;;;;;;0.40;0.20;;;10.40;99.90;;;;;;5136215;27;20410;-59
2023/10/28 02:34:07;;;;;;;0.60;0.20;;;10.40;99.90;;;;;;5136194;27;20430;-59
2023/10/28 02:36:34;;;;;;;1.60;0.10;;;10.40;99.90;;;;;;5137050;27;20418;-60
2023/10/28 02:39:01;;;;;;;0.40;0.10;;;10.40;99.90;;;;;;5136734;27;20717;-63
2023/10/28 02:41:28;;;;;;;0.40;0.20;;;10.40;99.90;;;;;;5136669;27;20507;-60
2023/10/28 02:43:55;;;;;;;0.73;0.20;;;10.40;99.90;;;;;;5134671;27;20413;-60
2023/10/28 02:46:23;;;;;;;0.40;0.20;;;10.30;99.90;;;;;;5134713;27;20436;-60
2023/10/28 02:48:52;;;;;;;0.30;0.10;;;10.30;99.90;;;;;;5134834;27;20434;-58
2023/10/28 02:51:19;;;;;;;0.70;0.10;;;10.30;99.90;;;;;;5135430;27;20772;-60
2023/10/28 02:53:46;;;;;;;0.73;0.20;;;10.20;99.90;;;;;;5135123;27;20419;-60
2023/10/28 02:56:13;;;;;;;0.80;0.20;;;10.20;99.90;;;;;;5135770;27;20417;-60
2023/10/28 02:58:40;;;;;;;0.40;0.20;;;10.20;99.90;;;;;;5135892;27;20853;-60
2023/10/28 03:01:08;;;;;;;0.60;0.20;;;10.20;99.90;;;;;;5136487;27;20461;-60
2023/10/28 03:03:35;;;;;;;0.77;0.20;;;10.20;99.90;;;;;;5135945;27;20421;-58
2023/10/28 03:06:04;;;;;;;0.60;0.10;;;10.20;99.90;;;;;;5136057;27;20429;-60
2023/10/28 03:08:31;;;;;;;1.92;0.20;;;10.20;99.90;;;;;;5135680;27;20418;-59
2023/10/28 03:10:58;;;;;;;0.40;0.20;;;10.20;99.90;;;;;;5135287;27;20422;-60
2023/10/28 03:13:25;;;;;;;0.70;0.20;;;10.20;99.90;;;;;;5135063;27;20422;-59
2023/10/28 03:15:52;;;;;;;0.40;0.20;;;10.20;99.90;;;;;;5135197;27;20846;-59
2023/10/28 03:18:20;;;;;;;0.30;0.20;;;10.20;99.90;;;;;;5136048;27;20430;-60
2023/10/28 03:20:47;;;;;;;0.50;0.20;;;10.30;99.90;;;;;;5139326;27;20457;-60
2023/10/28 03:23:16;;;;;;;0.80;0.30;;;10.30;99.90;;;;;;5140105;27;20411;-60
2023/10/28 03:25:43;;;;;;;0.40;0.20;;;10.20;99.90;;;;;;5138901;27;20898;-60
2023/10/28 03:28:10;;;;;;;0.40;0.10;;;10.20;99.90;;;;;;5137535;27;20418;-61
2023/10/28 03:30:38;;;;;;;0.60;0.20;;;10.20;99.90;;;;;;5138261;27;20426;-62
2023/10/28 03:33:04;;;;;;;1.90;0.20;;;10.20;99.90;;;;;;5138383;27;20789;-61
2023/10/28 03:35:32;;;;;;;1.53;0.33;;;10.20;99.90;;;;;;5137299;27;20424;-60
2023/10/28 03:37:59;;;;;;;0.90;0.20;;;10.30;99.90;;;;;;5138030;27;20774;-61
2023/10/28 03:40:27;;;;;;;2.35;0.30;;;10.30;99.90;;;;;;5138619;27;20413;-61
2023/10/28 03:42:54;;;;;;;2.10;0.30;;;10.30;99.90;;;;;;5139574;27;20418;-61
2023/10/28 03:45:21;;;;;;;1.80;0.20;;;10.30;99.90;;;;;;5139532;27;20425;-61
2023/10/28 03:47:48;;;;;;;1.10;0.20;;;10.30;99.90;;;;;;5139278;27;20418;-62
2023/10/28 03:50:15;;;;;;;0.50;0.20;;;10.30;99.90;;;;;;5139589;27;20422;-62
2023/10/28 03:52:42;;;;;;;1.30;0.20;;;10.30;99.90;;;;;;5139089;27;20771;-61
2023/10/28 03:55:10;;;;;;;1.60;0.20;;;10.40;99.90;;;;;;5139476;27;20429;-61
2023/10/28 03:57:38;;;;;;;1.30;0.20;;;10.40;99.90;;;;;;5139248;27;20422;-61
2023/10/28 04:00:10;;;;;;;1.30;0.20;;;10.30;99.90;;;;;;5139692;27;20418;-61
2023/10/28 04:02:38;;;;;;;0.50;0.20;;;10.30;99.90;;;;;;5139583;27;20429;-61
2023/10/28 04:05:05;;;;;;;1.40;0.20;;;10.30;99.90;;;;;;5139098;27;20411;-61
2023/10/28 04:07:32;;;;;;;1.10;0.30;;;10.30;99.90;;;;;;5139024;27;20426;-62
2023/10/28 04:10:04;;;;;;;0.60;0.20;;;10.30;99.90;;;;;;5138969;27;20437;-60
2023/10/28 04:12:32;;;;;;;1.25;0.20;;;10.40;99.90;;;;;;5138641;27;20426;-60
2023/10/28 04:15:01;;;;;;;0.40;0.20;;;10.40;99.90;;;;;;5139187;27;20429;-60
2023/10/28 04:17:31;;;;;;;0.40;0.20;;;10.40;99.90;;;;;;5139189;27;20418;-61
2023/10/28 04:19:59;;;;;;;1.15;0.40;;;10.50;99.90;;;;;;5139045;27;20411;-60
2023/10/28 04:22:28;;;;;;;0.50;0.20;;;10.50;99.90;;;;;;5136995;27;20879;-60
2023/10/28 04:24:56;;;;;;;0.55;0.20;;;10.60;99.90;;;;;;5136767;27;20576;-61
2023/10/28 04:27:23;;;;;;;1.70;0.20;;;10.70;99.90;;;;;;5137302;27;20768;-61
2023/10/28 04:29:51;;;;;;;1.40;0.20;;;10.80;99.90;;;;;;5136727;27;20714;-60
2023/10/28 04:32:22;;;;;;;1.50;0.20;;;10.70;99.90;;;;;;5137202;27;20428;-60
2023/10/28 04:34:51;;;;;;;0.90;0.20;;;10.80;99.90;;;;;;5138579;27;20846;-60
2023/10/28 04:37:18;;;;;;;0.40;0.40;;;10.70;99.90;;;;;;5138409;27;20454;-60
2023/10/28 04:39:45;;;;;;;0.40;0.10;;;10.70;99.90;;;;;;5138598;27;20432;-61
2023/10/28 04:42:12;;;;;;;1.00;0.20;;;10.80;99.90;;;;;;5138634;27;20418;-61
2023/10/28 04:44:39;;;;;;;1.60;0.15;;;10.80;99.90;;;;;;5138307;27;20422;-60
2023/10/28 04:47:06;;;;;;;0.30;0.10;;;10.80;99.90;;;;;;5137692;27;20414;-61
2023/10/28 04:49:34;;;;;;;0.50;0.20;;;10.70;99.90;;;;;;5137710;27;20426;-60
2023/10/28 04:52:01;;;;;;;0.32;0.17;;;10.70;99.90;;;;;;5137875;27;20418;-61
2023/10/28 04:54:28;;;;;;;0.60;0.20;;;10.70;99.90;;;;;;5136316;27;20425;-58
2023/10/28 04:56:58;;;;;;;1.00;0.20;;;10.60;99.90;;;;;;5137974;27;20419;-60
2023/10/28 04:59:25;;;;;;;0.50;0.25;;;10.60;99.90;;;;;;5137902;27;20513;-61
2023/10/28 05:01:52;;;;;;;0.57;0.20;;;10.60;99.90;;;;;;5137351;27;20422;-59
2023/10/28 05:04:19;;;;;;;0.60;0.30;;;10.60;99.90;;;;;;5136498;27;20427;-60
2023/10/28 05:06:47;;;;;;;0.55;0.20;;;10.60;99.90;;;;;;5137029;27;20718;-61
2023/10/28 05:09:15;;;;;;;1.10;0.40;;;10.60;99.90;;;;;;5136840;27;20418;-60
2023/10/28 05:11:43;;;;;;;0.80;0.20;;;10.60;99.90;;;;;;5136465;27;20509;-61
2023/10/28 05:14:11;;;;;;;1.60;0.20;;;10.60;99.90;;;;;;5137105;27;20705;-61
2023/10/28 05:16:39;;;;;;;0.70;0.10;;;10.60;99.90;;;;;;5137495;27;20434;-61
2023/10/28 05:19:08;;;;;;;0.70;0.30;;;10.60;99.90;;;;;;5138434;27;20479;-61
2023/10/28 05:21:37;;;;;;;1.70;0.20;;;10.60;99.90;;;;;;5136870;27;20479;-62
2023/10/28 05:24:06;;;;;;;0.30;0.20;;;10.60;99.90;;;;;;5136615;27;20528;-61
2023/10/28 05:26:33;;;;;;;1.00;0.20;;;10.50;99.90;;;;;;5136192;27;20426;-62
2023/10/28 05:29:00;;;;;;;0.30;0.10;;;10.50;99.90;;;;;;5134817;27;20410;-61
2023/10/28 05:31:27;;;;;;;0.40;0.20;;;10.50;99.90;;;;;;5136588;27;20857;-61
2023/10/28 05:33:55;;;;;;;0.50;0.20;;;10.40;99.90;;;;;;5135490;27;20884;-61
2023/10/28 05:36:22;;;;;;;0.90;0.20;;;10.40;99.90;;;;;;5137363;27;20430;-61
2023/10/28 05:38:49;;;;;;;0.80;0.30;;;10.40;99.90;;;;;;5137298;27;20475;-61
2023/10/28 05:41:18;;;;;;;0.32;0.15;;;10.40;99.90;;;;;;5136213;27;20411;-62
2023/10/28 05:43:45;;;;;;;0.47;0.20;;;10.40;99.90;;;;;;5134905;27;20471;-61
2023/10/28 05:46:13;;;;;;;0.50;0.20;;;10.40;99.90;;;;;;5137007;27;20418;-61
2023/10/28 05:48:40;;;;;;;0.93;0.20;;;10.40;99.90;;;;;;5136829;27;20864;-61
2023/10/28 05:51:09;;;;;;;1.20;0.20;;;10.40;99.90;;;;;;5137513;27;20438;-61
2023/10/28 05:53:36;;;;;;;1.80;0.20;;;10.50;99.90;;;;;;5136685;27;20699;-62
2023/10/28 05:56:03;;;;;;;0.90;0.20;;;10.40;99.90;;;;;;5136284;27;20410;-59
2023/10/28 05:58:31;;;;;;;0.80;0.20;;;10.40;99.90;;;;;;5137293;27;20410;-59
2023/10/28 06:01:01;;;;;;;0.50;0.20;;;10.50;99.90;;;;;;5135057;27;20426;-58
2023/10/28 06:03:28;;;;;;;1.70;0.20;;;10.40;99.90;;;;;;5113717;28;20844;-59
2023/10/28 06:05:56;;;;;;;1.20;0.20;;;10.40;99.90;;;;;;5123584;27;20419;-58
2023/10/28 06:08:23;;;;;;;0.80;0.20;;;10.40;99.90;;;;;;5134875;27;20422;-58
2023/10/28 06:10:50;;;;;;;0.65;0.20;;;10.40;99.90;;;;;;5133666;27;20433;-60
2023/10/28 06:13:17;;;;;;;0.75;0.20;;;10.40;99.90;;;;;;5136005;27;20418;-60
2023/10/28 06:15:46;;;;;;;0.60;0.30;;;10.40;99.90;;;;;;5115177;28;20424;-59
2023/10/28 06:18:13;;;;;;;0.50;0.20;;;10.50;99.90;;;;;;5125046;27;20516;-60
2023/10/28 06:20:40;;;;;;;0.70;0.20;;;10.60;99.90;;;;;;5135113;27;20458;-60
2023/10/28 06:23:07;;;;;;;0.90;0.20;;;10.60;99.90;;;;;;5135210;27;20414;-60
2023/10/28 06:25:35;;;;;;;0.93;0.20;;;10.60;99.90;;;;;;5134455;27;20422;-60
2023/10/28 06:28:05;;;;;;;0.80;0.20;;;10.60;99.90;;;;;;5135106;27;20457;-60
2023/10/28 06:30:33;;;;;;;0.50;0.20;;;10.60;99.90;;;;;;5135714;27;20438;-60
2023/10/28 06:33:02;;;;;;;0.73;0.20;;;10.60;99.90;;;;;;5135165;27;20845;-60
2023/10/28 06:35:30;;;;;;;0.40;0.20;;;10.70;99.90;;;;;;5134250;27;20426;-60
2023/10/28 06:37:57;;;;;;;0.60;0.20;;;10.60;99.90;;;;;;5134257;27;20829;-60
2023/10/28 06:40:24;;;;;;;0.50;0.20;;;10.70;99.90;;;;;;5131631;27;20464;-60
2023/10/28 06:42:52;;;;;;;1.00;0.30;;;10.80;99.90;;;;;;5133767;27;20441;-60
2023/10/28 06:45:19;;;;;;;0.40;0.20;;;10.80;99.90;;;;;;5134349;27;20826;-60
2023/10/28 06:47:46;;;;;;;0.52;0.20;;;10.70;99.90;;;;;;5133552;27;20418;-60
2023/10/28 06:50:19;;;;;;;0.70;0.20;;;10.70;99.90;;;;;;5133834;27;20508;-60
2023/10/28 06:52:47;;;;;;;1.02;0.20;;;10.70;99.90;;;;;;5133305;27;20422;-60
2023/10/28 06:55:14;;;;;;;0.45;0.20;;;10.70;99.90;;;;;;5133558;27;20708;-59
2023/10/28 06:57:41;;;;;;;0.65;0.20;;;10.70;99.90;;;;;;5133761;27;20425;-60
2023/10/28 07:00:12;;;;;;;0.50;0.20;;;10.70;99.90;;;;;;5134573;27;20935;-60
2023/10/28 07:02:40;;;;;;;0.50;0.20;;;10.70;99.90;;;;;;5132009;27;20919;-60
2023/10/28 07:05:08;;;;;;;1.55;0.20;;;10.70;99.90;;;;;;5131733;27;20454;-59
2023/10/28 07:07:37;;;;;;;0.50;0.20;;;10.70;99.90;;;;;;5131318;27;20480;-59
2023/10/28 07:10:05;;;;;;;0.70;0.20;;;10.70;99.90;;;;;;5132484;27;20433;-59
2023/10/28 07:12:32;;;;;;;1.35;0.20;;;10.80;99.90;;;;;;5132867;27;20527;-59
2023/10/28 07:14:59;;;;;;;1.63;0.32;;;10.90;99.90;;;;;;5131618;27;20856;-60
2023/10/28 07:17:27;;;;;;;0.60;0.20;;;11.00;99.90;;;;;;5132904;27;20815;-59
2023/10/28 07:19:54;;;;;;;1.00;0.30;;;11.00;99.90;;;;;;5134154;27;20419;-60
2023/10/28 07:22:22;;;;;;;0.68;0.30;;;11.10;99.90;;;;;;5134496;27;20531;-60
2023/10/28 07:24:53;;;;;;;2.30;0.30;;;11.20;99.90;;;;;;5133670;27;20419;-60
2023/10/28 07:27:20;;;;;;;0.70;0.20;;;11.20;99.90;;;;;;5133156;27;20798;-60
2023/10/28 07:29:48;;;;;;;0.60;0.30;;;11.30;99.90;;;;;;5134389;27;20423;-58
2023/10/28 07:32:15;;;;;;;0.50;0.20;;;11.50;99.90;;;;;;5133069;27;20410;-58
2023/10/28 07:34:42;;;;;;;0.53;0.20;;;11.50;99.90;;;;;;5134843;27;20411;-58
2023/10/28 07:37:09;;;;;;;0.82;0.20;;;11.50;99.90;;;;;;5134299;27;20487;-57
2023/10/28 07:39:38;;;;;;;0.63;0.20;;;11.50;99.90;;;;;;5133812;27;20422;-57
2023/10/28 07:42:07;;;;;;;1.33;0.30;;;11.60;99.90;;;;;;5133630;27;20927;-58
2023/10/28 07:44:34;;;;;;;1.27;0.20;;;11.60;99.90;;;;;;5133551;27;20418;-57
2023/10/28 07:47:01;;;;;;;0.50;0.20;;;11.50;99.90;;;;;;5132525;27;20845;-57
2023/10/28 07:49:28;;;;;;;0.50;0.20;;;11.60;99.90;;;;;;5123646;28;20429;-59
2023/10/28 07:51:55;;;;;;;0.70;0.20;;;11.70;99.90;;;;;;5132500;27;20422;-59
2023/10/28 07:54:23;;;;;;;0.40;0.20;;;11.70;99.90;;;;;;5133254;27;20423;-59
2023/10/28 07:56:51;;;;;;;0.50;0.20;;;11.70;99.90;;;;;;5133738;27;20437;-56
2023/10/28 07:59:19;;;;;;;0.90;0.30;;;11.70;99.90;;;;;;5133285;27;21036;-59
2023/10/28 08:01:46;;;;;;;0.63;0.20;;;11.80;99.90;;;;;;5133153;27;20453;-59
2023/10/28 08:04:14;;;;;;;0.50;0.20;;;11.90;99.90;;;;;;5133202;27;20426;-59
2023/10/28 08:06:42;;;;;;;1.20;0.20;;;12.00;99.90;;;;;;5133063;27;20533;-59
2023/10/28 08:09:09;;;;;;;1.00;0.30;;;12.10;99.90;;;;;;5136659;27;20422;-57
2023/10/28 08:11:37;;;;;;;0.50;0.20;;;12.10;99.90;;;;;;5137860;27;20458;-58
2023/10/28 08:14:05;;;;;;;0.40;0.20;;;12.10;99.90;;;;;;5138127;27;20906;-57
2023/10/28 08:16:34;;;;;;;0.57;0.20;;;12.20;99.90;;;;;;5135963;27;20429;-58
2023/10/28 08:19:03;;;;;;;0.57;0.20;;;12.30;99.90;;;;;;5123481;27;20868;-57
2023/10/28 08:21:30;;;;;;;0.70;0.28;;;12.30;99.90;;;;;;5132925;27;20420;-57
2023/10/28 08:23:57;;;;;;;0.80;0.20;;;12.40;99.90;;;;;;5136093;27;20449;-58
2023/10/28 08:26:26;;;;;;;0.60;0.20;;;12.40;99.90;;;;;;5137481;27;20425;-57
2023/10/28 08:28:53;;;;;;;1.10;0.20;;;12.50;99.90;;;;;;5137526;27;20882;-58
2023/10/28 08:31:21;;;;;;;0.40;0.20;;;12.60;99.90;;;;;;5135241;27;20519;-57
2023/10/28 08:33:50;;;;;;;2.10;0.20;;;12.80;99.90;;;;;;5133320;27;20710;-57
2023/10/28 08:36:17;;;;;;;0.60;0.30;;;12.90;99.90;;;;;;5134774;27;20434;-57
2023/10/28 08:38:47;;;;;;;0.40;0.20;;;13.00;99.90;;;;;;5134954;27;20858;-59
2023/10/28 08:41:17;;;;;;;0.90;0.20;;;13.10;99.90;;;;;;5137043;27;20422;-58
2023/10/28 08:43:46;;;;;;;1.42;0.20;;;13.20;99.90;;;;;;5137267;27;20430;-58
2023/10/28 08:46:13;;;;;;;0.60;0.20;;;13.40;99.90;;;;;;5134988;27;20457;-57
2023/10/28 08:48:41;;;;;;;0.40;0.20;;;13.30;99.90;;;;;;5135693;27;20450;-57
2023/10/28 08:51:11;;;;;;;1.90;0.20;;;13.30;99.90;;;;;;5133196;27;20431;-58
2023/10/28 08:53:39;;;;;;;1.35;0.20;;;13.20;99.90;;;;;;5135904;27;20425;-59
2023/10/28 08:56:07;;;;;;;1.20;0.20;;;13.20;99.90;;;;;;5135247;27;20422;-58
2023/10/28 08:58:37;;;;;;;0.60;0.20;;;13.10;99.90;;;;;;5136859;27;20721;-58
2023/10/28 09:01:05;;;;;;;1.73;0.30;;;13.10;99.90;;;;;;5135848;27;20460;-58
2023/10/28 09:03:35;;;;;;;0.47;0.20;;;13.10;99.90;;;;;;5130118;27;21173;-58
2023/10/28 09:06:04;;;;;;;0.70;0.30;;;13.10;99.90;;;;;;5132839;27;20651;-58
2023/10/28 09:08:33;;;;;;;0.70;0.20;;;13.20;99.90;;;;;;5133736;27;20446;-58
2023/10/28 09:11:01;;;;;;;0.50;0.20;;;13.20;99.90;;;;;;5134808;27;20436;-58
2023/10/28 09:13:28;;;;;;;0.40;0.20;;;13.30;99.90;;;;;;5123971;27;20859;-58
2023/10/28 09:15:55;;;;;;;0.50;0.20;;;13.40;99.90;;;;;;5133415;27;20421;-58
2023/10/28 09:18:22;;;;;;;1.00;0.30;;;13.50;1.00;;;;;;5135018;27;20434;-54
2023/10/28 09:20:49;;;;;;;1.80;0.30;;;13.50;1.00;;;;;;5134693;27;20414;-56
2023/10/28 09:23:16;;;;;;;0.70;0.25;;;13.60;1.00;;;;;;5135059;27;20410;-56
2023/10/28 09:25:45;;;;;;;0.50;0.20;;;13.60;1.00;;;;;;5135203;27;20418;-57
2023/10/28 09:28:18;;;;;;;0.50;0.20;;;13.60;1.00;;;;;;5135656;27;21073;-56
2023/10/28 09:30:46;;;;;;;1.40;0.20;;;13.60;1.00;;;;;;5126543;27;20434;-56
2023/10/28 09:33:14;;;;;;;0.70;0.20;;;13.70;1.00;;;;;;5134016;27;20478;-55
2023/10/28 09:35:43;;;;;;;0.53;0.20;;;13.70;1.00;;;;;;5123090;27;20418;-55
2023/10/28 09:38:12;;;;;;;0.77;0.30;;;13.70;1.00;;;;;;5129763;27;20612;-54
2023/10/28 09:40:39;;;;;;;0.90;0.20;;;13.70;1.00;;;;;;5121208;27;20529;-54
2023/10/28 09:43:08;;;;;;;0.50;0.20;;;13.70;1.00;;;;;;5133378;27;20462;-53
2023/10/28 09:45:36;;;;;;;1.40;0.20;;;13.70;1.00;;;;;;5125200;27;20430;-52
2023/10/28 09:48:12;;;;;;;1.00;0.20;;;13.80;1.00;;;;;;5132870;27;20802;-54
2023/10/28 09:50:48;;;;;;;0.52;0.20;;;14.00;1.00;;;;;;5131755;27;20453;-54
2023/10/28 09:53:18;;;;;;;1.70;0.20;;;14.10;1.00;;;;;;5124914;27;20619;-56
2023/10/28 09:55:47;;;;;;;1.50;0.30;;;14.30;1.00;;;;;;5118608;27;20431;-53
2023/10/28 09:58:20;;;;;;;0.50;0.20;;;14.60;99.90;;;;;;5133401;27;20466;-55
2023/10/28 10:00:50;;;;;;;1.00;0.20;;;14.60;1.00;;;;;;5126661;27;20444;-55
2023/10/28 10:03:31;;;;;;;1.10;0.20;;;14.80;1.00;;;;;;5126170;27;20442;-57
2023/10/28 10:05:59;;;;;;;0.47;0.20;;;14.90;99.90;;;;;;5123349;27;20568;-55
2023/10/28 10:08:27;;;;;;;0.70;0.20;;;14.90;1.00;;;;;;5126757;27;20438;-55
2023/10/28 10:10:55;;;;;;;0.50;0.20;;;15.10;99.90;;;;;;5128821;27;20853;-56
2023/10/28 10:13:24;;;;;;;1.73;0.20;;;15.20;99.90;;;;;;5127407;27;20809;-56
2023/10/28 10:16:00;;;;;;;1.40;0.20;;;15.10;1.00;;;;;;5127897;27;21050;-55
2023/10/28 10:18:33;;;;;;;0.60;0.30;;;15.10;99.90;;;;;;5127458;27;21023;-56
2023/10/28 10:21:05;;;;;;;1.00;0.20;;;15.00;1.00;;;;;;5131691;27;20434;-56
2023/10/28 10:23:43;;;;;;;0.50;0.20;;;15.10;99.90;;;;;;5129663;27;20743;-56
2023/10/28 10:26:23;;;;;;;0.90;0.20;;;15.10;99.90;;;;;;5128531;27;20466;-54
2023/10/28 10:28:55;;;;;;;0.60;0.20;;;15.20;1.00;;;;;;5127671;27;20786;-54
2023/10/28 10:31:30;;;;;;;1.00;0.20;;;15.20;1.00;;;;;;5131363;27;20434;-56
2023/10/28 10:34:02;;;;;;;1.10;0.20;;;15.20;99.90;;;;;;5128793;27;20795;-56
2023/10/28 10:36:30;;;;;;;0.63;0.20;;;15.10;1.00;;;;;;5129648;27;20434;-58
2023/10/28 10:39:18;;;;;;;2.15;0.30;;;15.20;99.90;;;;;;5127221;27;20501;-58
2023/10/28 10:41:49;;;;;;;1.20;0.20;;;15.20;1.00;;;;;;5130686;27;20811;-57
2023/10/28 10:44:33;;;;;;;0.70;0.20;;;15.30;44.30;;;;;;5127274;27;20719;-58
2023/10/28 10:47:01;;;;;;;1.00;0.30;;;15.40;1.00;;;;;;5124731;27;20430;-58
2023/10/28 10:49:30;;;;;;;1.30;0.20;;;15.60;1.00;;;;;;5126623;27;20422;-58
2023/10/28 10:51:58;;;;;;;1.52;0.20;;;15.90;99.90;;;;;;5126730;27;20426;-58
2023/10/28 10:54:30;;;;;;;0.70;0.20;;;16.20;99.90;;;;;;5129012;27;20499;-57
2023/10/28 10:56:58;;;;;;;0.40;0.20;;;16.40;99.90;;;;;;5125048;27;20462;-58
2023/10/28 10:59:28;;;;;;;0.95;0.20;;;16.30;99.90;;;;;;5133660;27;20445;-53
2023/10/28 11:01:56;;;;;;;0.70;0.20;;;16.20;99.90;;;;;;5131121;27;20705;-55
2023/10/28 11:04:24;;;;;;;1.52;0.20;;;16.20;99.90;;;;;;5128450;27;20422;-53
2023/10/28 11:06:52;;;;;;;0.60;0.20;;;16.10;99.90;;;;;;5129083;28;20434;-54
2023/10/28 11:09:20;;;;;;;1.10;0.30;;;15.80;1.00;;;;;;5127106;27;22068;-54
2023/10/28 11:11:47;;;;;;;3.88;0.70;;;15.60;1.00;;;;;;5123154;27;20710;-56
2023/10/28 11:14:14;;;;;;;1.10;0.20;;;15.50;99.90;;;;;;5128753;27;20426;-56
2023/10/28 11:16:44;;;;;;;0.77;0.20;;;15.40;1.00;;;;;;5128047;27;20429;-52
2023/10/28 11:19:11;;;;;;;0.90;0.30;;;15.30;29.70;;;;;;5129515;27;20830;-55
2023/10/28 11:21:40;;;;;;;1.10;0.30;;;15.30;1.00;;;;;;5130673;28;20431;-54
2023/10/28 11:24:07;;;;;;;0.80;0.20;;;15.40;15.60;;;;;;5123621;27;20588;-50
2023/10/28 11:26:36;;;;;;;1.20;0.20;;;15.30;1.00;;;;;;5129603;28;20482;-52
2023/10/28 11:29:04;;;;;;;0.90;0.20;;;15.20;1.00;;;;;;5127849;27;20466;-50
2023/10/28 11:31:33;;;;;;;0.77;0.25;;;15.10;1.00;;;;;;5125446;27;20434;-53
2023/10/28 11:34:04;;;;;;;0.97;0.20;;;15.20;1.00;;;;;;5122867;28;20487;-54
2023/10/28 11:36:33;;;;;;;0.95;0.28;;;15.20;99.90;;;;;;5128887;28;20438;-53
2023/10/28 11:39:08;;;;;;;0.90;0.30;;;15.20;95.60;;;;;;5124403;28;21741;-52
2023/10/28 11:41:36;;;;;;;0.93;0.30;;;15.00;1.00;;;;;;5129044;27;20422;-54
2023/10/28 11:44:03;;;;;;;0.70;0.30;;;14.90;1.00;;;;;;5126265;27;20428;-54
2023/10/28 11:46:31;;;;;;;0.60;0.30;;;14.80;1.00;;;;;;5126554;27;20441;-52
2023/10/28 11:48:58;;;;;;;0.40;0.20;;;14.90;99.90;;;;;;5130669;27;20740;-52
2023/10/28 11:51:27;;;;;;;0.50;0.20;;;15.00;1.00;;;;;;5133087;27;20525;-52
2023/10/28 11:53:55;;;;;;;0.80;0.30;;;15.10;1.00;;;;;;5134692;27;20771;-54
2023/10/28 11:56:22;;;;;;;1.42;0.30;;;15.10;1.00;;;;;;5127394;27;20429;-54
2023/10/28 11:58:50;;;;;;;1.30;0.25;;;15.00;1.00;;;;;;5129804;27;20427;-55
2023/10/28 12:01:18;;;;;;;0.55;0.30;;;15.00;1.00;;;;;;5126354;27;20521;-55
2023/10/28 12:03:46;;;;;;;0.80;0.30;;;15.10;1.00;;;;;;5134676;27;20418;-54
2023/10/28 12:06:14;;;;;;;0.50;0.20;;;15.10;1.00;;;;;;5135803;27;20698;-56
2023/10/28 12:08:42;;;;;;;1.50;0.20;;;15.00;1.00;;;;;;5135972;27;20600;-54
2023/10/28 12:11:09;;;;;;;2.05;0.20;;;15.00;1.00;;;;;;5133844;27;20414;-55
2023/10/28 12:13:36;;;;;;;0.98;0.30;;;15.00;99.90;;;;;;5131800;27;20734;-55
2023/10/28 12:16:05;;;;;;;1.90;0.30;;;15.10;1.00;;;;;;5119402;27;20821;-52
2023/10/28 12:18:32;;;;;;;0.70;0.20;;;15.10;1.00;;;;;;5137014;27;20514;-53
2023/10/28 12:21:00;;;;;;;1.20;0.30;;;14.90;99.90;;;;;;5134615;27;20450;-54
2023/10/28 12:23:27;;;;;;;0.90;0.30;;;14.90;1.00;;;;;;5133637;27;20471;-55
2023/10/28 12:25:55;;;;;;;1.60;0.20;;;14.70;99.90;;;;;;5134684;27;20410;-54
2023/10/28 12:28:23;;;;;;;0.80;0.30;;;14.70;1.00;;;;;;5132321;27;20414;-53
2023/10/28 12:30:50;;;;;;;0.90;0.30;;;14.70;1.00;;;;;;5134514;27;20842;-53
2023/10/28 12:33:18;;;;;;;0.70;0.28;;;14.80;1.00;;;;;;5130265;27;20705;-55
2023/10/28 12:35:45;;;;;;;0.60;0.20;;;14.90;99.90;;;;;;5135008;27;20410;-54
2023/10/28 12:38:12;;;;;;;1.40;0.30;;;14.90;1.00;;;;;;5136944;27;20422;-55
2023/10/28 12:40:39;;;;;;;1.20;0.30;;;15.00;1.00;;;;;;5136853;27;20419;-56
2023/10/28 12:43:08;;;;;;;0.90;0.30;;;15.10;1.00;;;;;;5129797;27;20414;-56
2023/10/28 12:45:35;;;;;;;1.20;0.30;;;15.10;99.90;;;;;;5130000;27;20438;-56
2023/10/28 12:48:02;;;;;;;0.60;0.22;;;15.20;99.90;;;;;;5134641;27;20434;-55
2023/10/28 12:50:30;;;;;;;0.63;0.30;;;15.30;80.90;;;;;;5133710;27;20422;-52
2023/10/28 12:52:57;;;;;;;0.50;0.20;;;15.20;1.00;;;;;;5129975;27;20755;-53